Time;durP1;ratioP1;P1;durP2;ratioP2;P2;SDS_P1;SDS_P2;PMS_P1;PMS_P2;Temp;Humidity;BMP_temperature;BMP_pressure;BME280_temperature;BME280_humidity;BME280_pressure;Samples;Min_cycle;Max_cycle;Signal;HPM_P1;HPM_P2
2022/02/18 00:01:17;;;;;;;7.80;3.20;;;6.10;99.90;;;;;;6103433;23;20451;-77
2022/02/18 00:03:47;;;;;;;9.60;2.87;;;6.10;99.90;;;;;;6128627;23;20769;-77
2022/02/18 00:06:16;;;;;;;10.83;3.20;;;6.20;99.90;;;;;;6130156;23;21063;-78
2022/02/18 00:08:45;;;;;;;9.07;3.30;;;6.20;99.90;;;;;;6130061;23;20496;-77
2022/02/18 00:11:14;;;;;;;11.90;3.30;;;6.20;99.90;;;;;;6140419;23;20466;-77
2022/02/18 00:13:43;;;;;;;9.43;2.97;;;6.20;99.90;;;;;;6129753;23;20445;-78
2022/02/18 00:16:11;;;;;;;11.97;3.20;;;6.20;99.90;;;;;;6129499;23;20513;-77
2022/02/18 00:18:39;;;;;;;12.73;3.00;;;6.20;99.90;;;;;;6131005;23;20498;-77
2022/02/18 00:21:07;;;;;;;11.67;3.47;;;6.20;99.90;;;;;;6130709;23;20489;-77
2022/02/18 00:23:35;;;;;;;14.10;3.20;;;6.20;99.90;;;;;;6132296;23;20449;-77
2022/02/18 00:26:03;;;;;;;14.03;4.03;;;6.10;99.90;;;;;;6130238;23;20485;-77
2022/02/18 00:28:31;;;;;;;8.23;2.33;;;6.20;99.90;;;;;;6113002;23;20452;-77
2022/02/18 00:31:00;;;;;;;11.13;2.60;;;6.10;99.90;;;;;;6132636;23;20441;-77
2022/02/18 00:33:29;;;;;;;11.57;3.17;;;6.10;99.90;;;;;;6130896;23;20462;-77
2022/02/18 00:35:57;;;;;;;13.37;4.63;;;6.10;99.90;;;;;;6132368;23;20417;-78
2022/02/18 00:38:25;;;;;;;5.43;2.80;;;6.10;99.90;;;;;;6141991;23;20414;-77
2022/02/18 00:40:53;;;;;;;12.33;3.20;;;6.10;99.90;;;;;;6137181;23;20450;-79
2022/02/18 00:43:21;;;;;;;9.37;2.53;;;6.20;99.90;;;;;;6133689;23;20457;-77
2022/02/18 00:45:49;;;;;;;10.20;3.20;;;6.20;99.90;;;;;;6130919;23;20422;-77
2022/02/18 00:48:19;;;;;;;10.60;2.60;;;6.20;99.90;;;;;;6131074;23;20434;-77
2022/02/18 00:50:47;;;;;;;7.50;2.50;;;6.20;99.90;;;;;;6140789;23;20494;-76
2022/02/18 00:53:15;;;;;;;8.97;3.03;;;6.20;99.90;;;;;;6103606;23;20453;-76
2022/02/18 00:55:43;;;;;;;10.27;1.93;;;6.20;99.90;;;;;;6137459;23;20557;-76
2022/02/18 00:58:11;;;;;;;9.63;2.43;;;6.20;99.90;;;;;;6140492;23;20414;-77
2022/02/18 01:00:39;;;;;;;5.90;2.63;;;6.20;99.90;;;;;;6129751;23;20450;-77
2022/02/18 01:03:07;;;;;;;12.30;2.67;;;6.20;99.90;;;;;;6137270;23;24845;-77
2022/02/18 01:05:36;;;;;;;14.10;2.90;;;6.20;99.90;;;;;;6129494;23;20473;-77
2022/02/18 01:08:05;;;;;;;9.47;3.00;;;6.20;99.90;;;;;;6139588;23;20410;-77
2022/02/18 01:10:33;;;;;;;12.17;2.80;;;6.20;99.90;;;;;;6131486;23;20816;-78
2022/02/18 01:13:01;;;;;;;11.83;2.53;;;6.20;99.90;;;;;;6101484;23;20820;-77
2022/02/18 01:15:30;;;;;;;9.90;2.40;;;6.20;99.90;;;;;;6114631;23;20873;-77
2022/02/18 01:17:57;;;;;;;11.50;2.83;;;6.10;99.90;;;;;;6131201;23;20418;-77
2022/02/18 01:20:26;;;;;;;9.40;2.70;;;6.10;99.90;;;;;;6104295;23;20489;-77
2022/02/18 01:22:55;;;;;;;10.27;2.40;;;6.10;99.90;;;;;;6128733;23;20418;-78
2022/02/18 01:25:23;;;;;;;11.57;3.30;;;6.10;99.90;;;;;;6139381;23;20410;-76
2022/02/18 01:27:55;;;;;;;12.73;3.60;;;6.10;99.90;;;;;;6124950;23;20432;-77
2022/02/18 01:30:25;;;;;;;10.53;3.23;;;6.10;99.90;;;;;;6130360;23;20663;-77
2022/02/18 01:32:54;;;;;;;7.53;2.63;;;6.00;99.90;;;;;;6131079;23;20457;-76
2022/02/18 01:35:23;;;;;;;7.27;2.70;;;6.00;99.90;;;;;;6102789;23;20434;-77
2022/02/18 01:37:53;;;;;;;10.53;3.23;;;6.00;99.90;;;;;;6130853;23;20415;-77
2022/02/18 01:40:23;;;;;;;6.30;2.37;;;5.90;99.90;;;;;;6130163;23;20479;-77
2022/02/18 01:42:51;;;;;;;7.10;2.43;;;6.00;99.90;;;;;;6127402;23;20741;-77
2022/02/18 01:45:19;;;;;;;11.30;2.83;;;6.00;99.90;;;;;;6129359;23;20872;-77
2022/02/18 01:47:47;;;;;;;12.10;2.50;;;5.90;99.90;;;;;;6128972;23;20493;-77
2022/02/18 01:50:16;;;;;;;9.90;3.00;;;5.90;99.90;;;;;;6138089;23;20763;-77
2022/02/18 01:52:47;;;;;;;16.73;3.50;;;5.90;99.90;;;;;;6129672;23;20422;-77
2022/02/18 01:55:16;;;;;;;7.60;2.57;;;5.90;99.90;;;;;;6128191;23;20434;-77
2022/02/18 01:57:48;;;;;;;8.83;3.47;;;5.80;99.90;;;;;;6128858;23;20418;-77
2022/02/18 02:00:18;;;;;;;8.53;2.33;;;5.80;99.90;;;;;;6128071;23;20442;-77
2022/02/18 02:02:47;;;;;;;12.00;2.90;;;5.80;99.90;;;;;;6140139;23;20409;-77
2022/02/18 02:05:15;;;;;;;9.93;4.40;;;5.70;99.90;;;;;;6128243;23;20450;-78
2022/02/18 02:07:45;;;;;;;11.67;2.80;;;5.70;99.90;;;;;;6130240;23;20427;-77
2022/02/18 02:10:15;;;;;;;8.37;2.50;;;5.70;99.90;;;;;;6129292;23;20767;-78
2022/02/18 02:12:50;;;;;;;9.87;2.30;;;5.60;99.90;;;;;;6130149;23;20453;-77
2022/02/18 02:15:19;;;;;;;9.80;3.10;;;5.60;99.90;;;;;;6128120;23;20524;-77
2022/02/18 02:17:48;;;;;;;8.47;2.10;;;5.60;99.90;;;;;;6129942;23;20439;-77
2022/02/18 02:20:17;;;;;;;10.87;2.40;;;5.60;99.90;;;;;;6129192;23;20899;-77
2022/02/18 02:22:47;;;;;;;13.13;3.20;;;5.50;99.90;;;;;;6131077;23;20418;-78
2022/02/18 02:25:15;;;;;;;9.30;2.40;;;5.50;99.90;;;;;;6127995;23;20433;-78
2022/02/18 02:27:44;;;;;;;7.70;2.53;;;5.50;99.90;;;;;;6136047;23;20413;-77
2022/02/18 02:30:13;;;;;;;6.33;2.50;;;5.40;99.90;;;;;;6129609;23;20512;-77
2022/02/18 02:32:41;;;;;;;6.57;2.10;;;5.40;99.90;;;;;;6129570;23;20433;-79
2022/02/18 02:35:10;;;;;;;8.03;2.77;;;5.30;99.90;;;;;;6129407;23;20487;-77
2022/02/18 02:37:39;;;;;;;10.30;3.13;;;5.30;99.90;;;;;;6130965;23;20421;-78
2022/02/18 02:40:09;;;;;;;9.73;2.63;;;5.20;99.90;;;;;;6129187;23;20473;-77
2022/02/18 02:42:39;;;;;;;8.27;2.33;;;5.20;99.90;;;;;;6129825;23;20871;-77
2022/02/18 02:45:07;;;;;;;12.37;3.17;;;5.20;99.90;;;;;;6129317;23;20466;-77
2022/02/18 02:47:37;;;;;;;8.00;2.53;;;5.20;99.90;;;;;;6127952;23;20428;-77
2022/02/18 02:50:05;;;;;;;10.90;3.00;;;5.20;99.90;;;;;;6131796;23;20659;-76
2022/02/18 02:52:33;;;;;;;7.53;3.00;;;5.10;99.90;;;;;;6104922;23;20489;-77
2022/02/18 02:55:01;;;;;;;14.83;2.80;;;5.10;99.90;;;;;;6131440;23;20521;-77
2022/02/18 02:57:30;;;;;;;14.53;3.30;;;5.10;99.90;;;;;;6129499;23;20418;-77
2022/02/18 02:59:58;;;;;;;9.10;2.53;;;5.10;99.90;;;;;;6136797;23;20487;-78
2022/02/18 03:02:27;;;;;;;6.93;2.33;;;5.10;99.90;;;;;;6129179;23;20472;-77
2022/02/18 03:04:55;;;;;;;6.30;2.50;;;5.00;99.90;;;;;;6127725;23;20446;-77
2022/02/18 03:07:23;;;;;;;6.80;2.50;;;5.00;99.90;;;;;;6140971;23;20864;-77
2022/02/18 03:09:51;;;;;;;13.80;2.87;;;5.00;99.90;;;;;;6130388;23;20469;-77
2022/02/18 03:12:19;;;;;;;10.20;2.40;;;5.00;99.90;;;;;;6140358;23;20415;-77
2022/02/18 03:14:48;;;;;;;11.50;3.07;;;5.00;99.90;;;;;;6132289;23;20517;-77
2022/02/18 03:17:16;;;;;;;8.73;2.50;;;5.00;99.90;;;;;;6131054;23;20422;-78
2022/02/18 03:19:45;;;;;;;6.37;2.30;;;5.00;99.90;;;;;;6132141;23;20453;-77
2022/02/18 03:22:13;;;;;;;10.37;2.80;;;4.90;99.90;;;;;;6131835;23;20453;-78
2022/02/18 03:24:41;;;;;;;7.30;2.50;;;4.90;99.90;;;;;;6129188;23;20459;-77
2022/02/18 03:27:09;;;;;;;10.30;3.27;;;5.00;99.90;;;;;;6130221;23;20418;-78
2022/02/18 03:29:38;;;;;;;9.67;2.60;;;5.00;99.90;;;;;;6130132;23;20446;-77
2022/02/18 03:32:08;;;;;;;10.37;3.00;;;5.00;99.90;;;;;;6104296;23;20441;-77
2022/02/18 03:34:36;;;;;;;7.70;2.60;;;5.00;99.90;;;;;;6129550;23;20477;-77
2022/02/18 03:37:04;;;;;;;6.83;2.40;;;4.90;99.90;;;;;;6130811;23;20554;-77
2022/02/18 03:39:33;;;;;;;9.07;2.60;;;4.90;99.90;;;;;;6141322;23;20531;-77
2022/02/18 03:42:01;;;;;;;6.87;2.30;;;4.90;99.90;;;;;;6130152;23;20500;-77
2022/02/18 03:44:29;;;;;;;7.13;2.30;;;4.90;99.90;;;;;;6132400;23;20450;-77
2022/02/18 03:46:57;;;;;;;11.27;2.90;;;4.90;99.90;;;;;;6140674;23;20414;-77
2022/02/18 03:49:26;;;;;;;11.47;3.23;;;4.90;99.90;;;;;;6130064;23;20485;-77
2022/02/18 03:51:54;;;;;;;6.50;2.27;;;4.90;99.90;;;;;;6132050;23;20501;-77
2022/02/18 03:54:24;;;;;;;8.67;2.80;;;4.90;99.90;;;;;;6130192;23;20525;-77
2022/02/18 03:56:52;;;;;;;7.50;2.77;;;4.90;99.90;;;;;;6132026;23;20418;-79
2022/02/18 03:59:20;;;;;;;11.57;4.17;;;4.80;99.90;;;;;;6130432;23;20449;-77
2022/02/18 04:01:48;;;;;;;8.23;2.20;;;4.80;99.90;;;;;;6131604;23;20507;-77
2022/02/18 04:04:16;;;;;;;9.27;2.70;;;4.80;99.90;;;;;;6131141;23;20442;-77
2022/02/18 04:06:45;;;;;;;9.70;2.60;;;4.80;99.90;;;;;;6133226;23;20414;-79
2022/02/18 04:09:13;;;;;;;11.33;3.10;;;4.80;99.90;;;;;;6135130;23;20414;-78
2022/02/18 04:11:41;;;;;;;11.27;2.70;;;4.80;99.90;;;;;;6154656;23;20498;-78
2022/02/18 04:14:09;;;;;;;8.40;2.63;;;4.80;99.90;;;;;;6144946;23;20446;-78
2022/02/18 04:16:37;;;;;;;10.03;2.43;;;4.90;99.90;;;;;;6143586;23;20473;-77
2022/02/18 04:19:05;;;;;;;10.80;2.70;;;4.90;99.90;;;;;;6136413;23;20457;-77
2022/02/18 04:21:33;;;;;;;9.50;3.83;;;4.90;99.90;;;;;;6133568;23;20435;-78
2022/02/18 04:24:05;;;;;;;13.20;2.70;;;4.90;99.90;;;;;;6076431;23;20457;-77
2022/02/18 04:26:33;;;;;;;9.53;2.97;;;4.90;99.90;;;;;;6112913;23;20553;-77
2022/02/18 04:29:01;;;;;;;9.33;2.40;;;4.90;99.90;;;;;;6112471;23;20414;-77
2022/02/18 04:31:29;;;;;;;8.20;2.80;;;4.90;99.90;;;;;;6102448;23;20475;-79
2022/02/18 04:33:57;;;;;;;7.10;2.27;;;4.90;99.90;;;;;;6076671;23;20470;-77
2022/02/18 04:36:25;;;;;;;8.50;2.27;;;4.90;99.90;;;;;;6104845;23;20486;-78
2022/02/18 04:38:54;;;;;;;6.33;2.50;;;4.90;99.90;;;;;;6114669;23;20415;-77
2022/02/18 04:41:24;;;;;;;4.80;2.47;;;4.90;99.90;;;;;;6077230;23;20507;-77
2022/02/18 04:43:52;;;;;;;5.90;2.37;;;4.90;99.90;;;;;;6108380;23;20482;-77
2022/02/18 04:46:20;;;;;;;9.33;2.30;;;4.90;99.90;;;;;;6113542;23;20506;-77
2022/02/18 04:48:48;;;;;;;5.20;2.60;;;4.90;99.90;;;;;;6105193;23;20493;-77
2022/02/18 04:51:16;;;;;;;9.33;3.63;;;4.90;99.90;;;;;;6104884;23;20521;-77
2022/02/18 04:53:44;;;;;;;9.17;2.50;;;5.00;99.90;;;;;;6101883;23;20517;-77
2022/02/18 04:56:12;;;;;;;10.97;2.80;;;4.90;99.90;;;;;;6103752;23;20427;-78
2022/02/18 04:58:42;;;;;;;7.53;2.37;;;4.90;99.90;;;;;;6102748;23;20500;-79
2022/02/18 05:01:10;;;;;;;9.37;2.67;;;4.90;99.90;;;;;;6104425;23;20611;-77
2022/02/18 05:03:39;;;;;;;8.20;2.60;;;4.90;99.90;;;;;;6108435;23;20515;-78
2022/02/18 05:06:07;;;;;;;13.33;2.60;;;4.90;99.90;;;;;;6103049;23;20494;-78
2022/02/18 05:08:35;;;;;;;6.97;2.40;;;4.90;99.90;;;;;;6078559;23;20427;-77
2022/02/18 05:11:03;;;;;;;7.97;2.70;;;4.90;99.90;;;;;;6104084;23;20522;-77
2022/02/18 05:13:31;;;;;;;8.27;2.30;;;5.00;99.90;;;;;;6103267;23;20991;-77
2022/02/18 05:16:02;;;;;;;6.07;3.03;;;5.00;99.90;;;;;;6118623;23;20470;-78
2022/02/18 05:18:30;;;;;;;8.93;2.50;;;5.00;99.90;;;;;;6102846;23;20489;-77
2022/02/18 05:20:58;;;;;;;10.00;2.53;;;4.90;99.90;;;;;;6101467;23;20491;-77
2022/02/18 05:23:26;;;;;;;7.10;2.43;;;4.90;99.90;;;;;;6103221;23;20502;-77
2022/02/18 05:25:54;;;;;;;6.10;2.33;;;5.00;99.90;;;;;;6102508;23;20482;-80
2022/02/18 05:28:22;;;;;;;10.57;2.37;;;5.00;99.90;;;;;;6100831;23;20427;-77
2022/02/18 05:30:50;;;;;;;6.93;2.77;;;5.00;99.90;;;;;;6111172;23;20446;-77
2022/02/18 05:33:19;;;;;;;7.57;3.10;;;5.00;99.90;;;;;;6101685;23;20495;-77
2022/02/18 05:35:47;;;;;;;8.00;2.60;;;4.90;99.90;;;;;;6077013;23;20441;-77
2022/02/18 05:38:15;;;;;;;6.33;2.40;;;4.90;99.90;;;;;;6102201;23;20423;-77
2022/02/18 05:40:43;;;;;;;7.33;2.43;;;4.90;99.90;;;;;;6101839;23;20494;-79
2022/02/18 05:43:11;;;;;;;7.27;2.60;;;4.90;99.90;;;;;;6099977;23;20808;-81
2022/02/18 05:45:40;;;;;;;7.73;2.20;;;4.90;99.90;;;;;;6101593;23;20473;-78
2022/02/18 05:48:08;;;;;;;8.70;2.70;;;4.90;99.90;;;;;;6102290;23;20426;-78
2022/02/18 05:50:39;;;;;;;7.63;3.20;;;4.90;99.90;;;;;;6101445;23;20471;-77
2022/02/18 05:53:07;;;;;;;8.50;2.77;;;4.90;99.90;;;;;;6109671;23;20447;-77
2022/02/18 05:55:35;;;;;;;7.20;2.83;;;4.90;99.90;;;;;;6077237;23;20501;-78
2022/02/18 05:58:03;;;;;;;8.53;2.80;;;5.00;99.90;;;;;;6113603;23;20407;-77
2022/02/18 06:00:31;;;;;;;5.00;3.10;;;4.90;99.90;;;;;;6100454;23;20434;-77
2022/02/18 06:02:59;;;;;;;7.20;2.70;;;4.90;99.90;;;;;;6107834;23;20399;-77
2022/02/18 06:05:27;;;;;;;10.20;3.20;;;4.90;99.90;;;;;;6099813;23;20513;-77
2022/02/18 06:07:56;;;;;;;10.60;3.80;;;4.90;99.90;;;;;;6110904;23;20426;-77
2022/02/18 06:10:24;;;;;;;10.70;3.10;;;4.90;99.90;;;;;;6109956;23;20430;-77
2022/02/18 06:12:52;;;;;;;10.73;3.40;;;4.90;99.90;;;;;;6099664;23;20516;-77
2022/02/18 06:15:21;;;;;;;8.10;3.40;;;4.90;99.90;;;;;;6100433;23;20427;-77
2022/02/18 06:17:49;;;;;;;6.17;3.37;;;4.90;99.90;;;;;;6097530;23;20810;-80
2022/02/18 06:20:16;;;;;;;8.00;3.93;;;4.90;99.90;;;;;;6093406;23;20447;-76
2022/02/18 06:22:45;;;;;;;9.50;3.60;;;4.90;99.90;;;;;;6092413;23;20474;-76
2022/02/18 06:25:14;;;;;;;7.00;3.00;;;4.90;99.90;;;;;;6093700;23;20525;-77
2022/02/18 06:27:43;;;;;;;14.77;4.10;;;4.80;99.90;;;;;;6095606;23;20427;-78
2022/02/18 06:30:12;;;;;;;6.73;3.60;;;4.80;99.90;;;;;;6105219;23;20439;-77
2022/02/18 06:32:40;;;;;;;8.57;4.37;;;4.90;99.90;;;;;;6099827;23;20860;-77
2022/02/18 06:35:10;;;;;;;10.70;3.37;;;4.80;99.90;;;;;;6096364;23;20458;-77
2022/02/18 06:37:39;;;;;;;8.13;3.67;;;4.80;99.90;;;;;;6097721;23;21018;-77
2022/02/18 06:40:08;;;;;;;8.87;4.17;;;4.80;99.90;;;;;;6098559;23;20485;-78
2022/02/18 06:42:39;;;;;;;10.30;4.23;;;4.90;99.90;;;;;;6098014;23;20420;-79
2022/02/18 06:45:08;;;;;;;7.53;3.67;;;4.90;99.90;;;;;;6097431;23;20451;-78
2022/02/18 06:47:37;;;;;;;9.47;4.03;;;4.90;99.90;;;;;;6099362;23;20426;-77
2022/02/18 06:50:06;;;;;;;8.47;3.80;;;4.90;99.90;;;;;;6111101;23;20441;-77
2022/02/18 06:52:33;;;;;;;11.37;4.63;;;5.00;99.90;;;;;;6110701;23;20435;-78
2022/02/18 06:55:02;;;;;;;8.13;4.33;;;5.00;99.90;;;;;;6102977;23;20439;-77
2022/02/18 06:57:30;;;;;;;10.00;4.07;;;5.00;99.90;;;;;;6101943;23;20482;-77
2022/02/18 06:59:59;;;;;;;11.83;4.73;;;4.90;99.90;;;;;;6101964;23;20728;-81
2022/02/18 07:02:27;;;;;;;9.90;4.30;;;5.00;99.90;;;;;;6098833;23;20506;-77
2022/02/18 07:04:55;;;;;;;8.37;4.60;;;5.00;99.90;;;;;;6099184;23;20447;-77
2022/02/18 07:07:23;;;;;;;8.00;4.47;;;5.10;99.90;;;;;;6101148;23;20450;-77
2022/02/18 07:09:51;;;;;;;9.37;4.60;;;5.00;99.90;;;;;;6101437;23;20429;-78
2022/02/18 07:12:24;;;;;;;8.43;4.60;;;5.10;99.90;;;;;;6104546;23;20434;-78
2022/02/18 07:14:54;;;;;;;9.83;4.07;;;5.00;99.90;;;;;;6099431;23;20487;-77
2022/02/18 07:17:25;;;;;;;8.30;4.50;;;5.10;99.90;;;;;;6099801;23;20459;-77
2022/02/18 07:19:54;;;;;;;14.60;5.10;;;5.20;99.90;;;;;;6100590;23;20427;-77
2022/02/18 07:22:22;;;;;;;11.77;5.30;;;5.10;99.90;;;;;;6101530;23;20422;-77
2022/02/18 07:24:53;;;;;;;9.90;5.30;;;5.20;99.90;;;;;;6102652;23;20494;-77
2022/02/18 07:27:21;;;;;;;11.80;5.13;;;5.20;99.90;;;;;;6100829;23;20415;-78
2022/02/18 07:29:49;;;;;;;10.00;5.53;;;5.20;99.90;;;;;;6103057;23;20418;-78
2022/02/18 07:32:20;;;;;;;10.77;5.27;;;5.30;99.90;;;;;;6097039;23;20723;-78
2022/02/18 07:34:51;;;;;;;16.17;5.43;;;5.30;99.90;;;;;;6100876;23;20815;-76
2022/02/18 07:37:19;;;;;;;10.50;5.30;;;5.30;99.90;;;;;;6111137;23;20760;-79
2022/02/18 07:39:47;;;;;;;9.47;4.90;;;5.40;99.90;;;;;;6099825;23;20831;-79
2022/02/18 07:42:15;;;;;;;11.50;5.40;;;5.40;99.90;;;;;;6113509;23;20407;-78
2022/02/18 07:44:43;;;;;;;9.70;5.40;;;5.40;99.90;;;;;;6101748;23;20506;-78
2022/02/18 07:47:11;;;;;;;17.27;6.80;;;5.50;99.90;;;;;;6104109;23;20752;-80
2022/02/18 07:49:52;;;;;;;11.70;4.93;;;5.40;99.90;;;;;;6103029;23;20656;-80
2022/02/18 07:52:21;;;;;;;15.23;5.20;;;5.40;99.90;;;;;;6113730;23;21024;-78
2022/02/18 07:54:50;;;;;;;11.10;4.77;;;5.40;99.90;;;;;;6105487;23;20809;-79
2022/02/18 07:57:18;;;;;;;8.13;4.93;;;5.40;99.90;;;;;;6079035;23;20430;-78
2022/02/18 07:59:47;;;;;;;10.23;4.90;;;5.40;99.90;;;;;;6105457;23;20414;-80
2022/02/18 08:02:15;;;;;;;10.90;4.50;;;5.50;99.90;;;;;;6113728;23;20437;-79
2022/02/18 08:04:44;;;;;;;7.83;4.03;;;5.50;99.90;;;;;;6101709;23;20435;-81
2022/02/18 08:07:13;;;;;;;8.40;4.30;;;5.50;99.90;;;;;;6110394;23;20412;-81
2022/02/18 08:09:42;;;;;;;9.67;4.47;;;5.50;99.90;;;;;;6109138;23;20429;-80
2022/02/18 08:12:10;;;;;;;8.80;4.13;;;5.50;99.90;;;;;;6074775;23;20764;-79
2022/02/18 08:14:38;;;;;;;7.80;4.50;;;5.60;99.90;;;;;;6103027;23;20466;-80
2022/02/18 08:17:06;;;;;;;9.60;4.73;;;5.60;99.90;;;;;;6099678;23;20493;-78
2022/02/18 08:19:34;;;;;;;7.67;4.50;;;5.60;99.90;;;;;;6111475;23;20761;-77
2022/02/18 08:22:03;;;;;;;10.13;3.80;;;5.60;99.90;;;;;;6098290;23;20443;-80
2022/02/18 08:24:38;;;;;;;7.87;4.47;;;5.70;99.90;;;;;;6101949;23;20510;-78
2022/02/18 08:27:06;;;;;;;11.20;4.43;;;5.70;99.90;;;;;;6097528;23;20422;-81
2022/02/18 08:29:35;;;;;;;8.70;4.30;;;5.70;99.90;;;;;;6077158;23;20431;-80
2022/02/18 08:32:06;;;;;;;11.13;4.00;;;5.80;99.90;;;;;;6114769;23;20434;-83
2022/02/18 08:34:34;;;;;;;8.23;3.40;;;5.80;99.90;;;;;;6103233;23;20458;-82
2022/02/18 08:37:07;;;;;;;10.80;3.50;;;5.90;99.90;;;;;;6113861;23;20426;-78
2022/02/18 08:39:36;;;;;;;6.03;4.00;;;5.90;99.90;;;;;;6113637;23;20439;-79
2022/02/18 08:42:07;;;;;;;8.53;4.10;;;5.90;99.90;;;;;;6102111;23;20506;-84
2022/02/18 08:44:35;;;;;;;8.40;3.90;;;6.00;99.90;;;;;;6074656;23;20482;-78
2022/02/18 08:47:03;;;;;;;10.57;4.10;;;6.00;99.90;;;;;;6078424;23;20437;-80
2022/02/18 08:49:31;;;;;;;8.97;4.47;;;6.00;99.90;;;;;;6104868;23;20450;-82
2022/02/18 08:51:59;;;;;;;8.83;4.13;;;6.00;99.90;;;;;;6104602;23;20515;-78
2022/02/18 08:54:27;;;;;;;10.57;4.63;;;6.00;99.90;;;;;;6106090;23;20480;-81
2022/02/18 08:56:55;;;;;;;12.00;4.83;;;6.00;99.90;;;;;;6105982;23;20415;-78
2022/02/18 08:59:25;;;;;;;11.90;5.73;;;6.00;99.90;;;;;;6104913;23;20415;-79
2022/02/18 09:01:53;;;;;;;8.43;4.47;;;6.10;99.90;;;;;;6080234;23;20919;-79
2022/02/18 09:04:21;;;;;;;13.87;5.20;;;6.10;99.90;;;;;;6106452;23;20994;-86
2022/02/18 09:06:49;;;;;;;14.53;4.90;;;6.10;99.90;;;;;;6074782;23;20442;-80
2022/02/18 09:09:17;;;;;;;14.03;6.00;;;6.10;99.90;;;;;;6103884;23;20423;-78
2022/02/18 09:11:45;;;;;;;10.80;5.87;;;6.10;99.90;;;;;;6104585;23;20933;-77
2022/02/18 09:14:16;;;;;;;13.30;6.47;;;6.20;99.90;;;;;;6102429;23;20454;-80
2022/02/18 09:16:45;;;;;;;11.90;7.10;;;6.20;99.90;;;;;;6104702;23;20418;-79
2022/02/18 09:19:13;;;;;;;9.60;5.60;;;6.20;99.90;;;;;;6105171;23;20931;-78
2022/02/18 09:21:41;;;;;;;11.03;6.57;;;6.20;99.90;;;;;;6108079;23;20546;-77
2022/02/18 09:24:09;;;;;;;10.20;5.73;;;6.30;99.90;;;;;;6108648;23;20454;-77
2022/02/18 09:26:37;;;;;;;10.00;5.37;;;6.20;99.90;;;;;;6114595;23;20941;-80
2022/02/18 09:29:11;;;;;;;9.40;5.43;;;6.20;99.90;;;;;;6103651;23;20426;-79
2022/02/18 09:31:39;;;;;;;9.43;4.80;;;6.20;99.90;;;;;;6102959;23;20708;-78
2022/02/18 09:34:09;;;;;;;7.03;4.30;;;6.20;99.90;;;;;;6078250;23;20537;-78
2022/02/18 09:36:37;;;;;;;11.70;4.93;;;6.20;99.90;;;;;;6103905;23;20420;-78
2022/02/18 09:39:07;;;;;;;7.03;4.37;;;6.20;99.90;;;;;;6112335;23;20439;-77
2022/02/18 09:41:35;;;;;;;10.57;4.40;;;6.30;99.90;;;;;;6113314;23;20466;-77
2022/02/18 09:44:04;;;;;;;10.53;4.70;;;6.30;99.90;;;;;;6077626;23;20458;-77
2022/02/18 09:46:32;;;;;;;10.07;4.90;;;6.30;99.90;;;;;;6100046;23;20429;-78
2022/02/18 09:49:01;;;;;;;5.23;4.60;;;6.30;99.90;;;;;;6100934;23;20423;-78
2022/02/18 09:51:31;;;;;;;8.83;5.20;;;6.30;99.90;;;;;;6112255;23;20873;-81
2022/02/18 09:53:59;;;;;;;6.50;4.83;;;6.30;99.90;;;;;;6102256;23;20538;-79
2022/02/18 09:56:31;;;;;;;9.17;4.73;;;6.20;99.90;;;;;;6104060;23;20420;-79
2022/02/18 09:59:01;;;;;;;11.83;5.40;;;6.20;99.90;;;;;;6103112;23;20419;-79
2022/02/18 10:01:30;;;;;;;9.80;5.50;;;6.20;99.90;;;;;;6098322;23;20446;-78
2022/02/18 10:03:59;;;;;;;13.60;6.73;;;6.20;99.90;;;;;;6098932;23;20510;-78
2022/02/18 10:06:29;;;;;;;10.20;6.10;;;6.20;99.90;;;;;;6100339;23;20538;-80
2022/02/18 10:08:59;;;;;;;8.47;5.53;;;6.20;99.90;;;;;;6100838;23;20710;-78
2022/02/18 10:11:51;;;;;;;9.13;5.00;;;6.10;99.90;;;;;;6099893;23;20443;-78
2022/02/18 10:14:19;;;;;;;9.00;5.70;;;6.20;99.90;;;;;;6099226;23;20451;-78
2022/02/18 10:16:49;;;;;;;7.07;4.37;;;6.20;99.90;;;;;;6100731;23;20419;-80
2022/02/18 10:19:20;;;;;;;10.83;5.47;;;6.20;99.90;;;;;;6112414;23;20537;-77
2022/02/18 10:22:01;;;;;;;15.13;5.83;;;6.20;99.90;;;;;;6109864;23;20441;-78
2022/02/18 10:24:39;;;;;;;9.83;5.80;;;6.20;99.90;;;;;;6098186;23;20442;-78
2022/02/18 10:27:07;;;;;;;9.93;5.73;;;6.20;99.90;;;;;;6109750;23;20524;-77
2022/02/18 10:29:35;;;;;;;11.37;5.83;;;6.20;99.90;;;;;;6099089;23;20422;-77
2022/02/18 10:32:12;;;;;;;11.07;5.07;;;6.20;99.90;;;;;;6100321;23;20420;-77
2022/02/18 10:34:52;;;;;;;6.90;4.67;;;6.20;99.90;;;;;;6100842;23;20519;-79
2022/02/18 10:37:23;;;;;;;8.20;5.10;;;6.20;99.90;;;;;;6098137;23;20415;-78
2022/02/18 10:40:07;;;;;;;7.17;4.30;;;6.30;99.90;;;;;;6100483;23;20437;-79
2022/02/18 10:42:36;;;;;;;7.60;3.70;;;6.30;99.90;;;;;;6110970;23;20418;-78
2022/02/18 10:45:09;;;;;;;8.13;4.30;;;6.30;99.90;;;;;;6073807;23;20587;-81
2022/02/18 10:47:39;;;;;;;6.70;4.43;;;6.30;99.90;;;;;;6102305;23;20459;-79
2022/02/18 10:50:18;;;;;;;7.40;4.60;;;6.40;99.90;;;;;;6074059;23;20448;-78
2022/02/18 10:53:12;;;;;;;8.87;4.77;;;6.40;99.90;;;;;;6100152;23;20426;-77
2022/02/18 10:55:53;;;;;;;6.97;5.00;;;6.30;99.90;;;;;;6076264;23;20446;-78
2022/02/18 10:58:23;;;;;;;8.73;5.30;;;6.30;99.90;;;;;;6102156;23;20435;-76
2022/02/18 11:01:08;;;;;;;10.43;5.13;;;6.30;99.90;;;;;;6101893;23;20434;-82
2022/02/18 11:03:40;;;;;;;8.70;5.13;;;6.30;99.90;;;;;;6108746;23;20444;-80
2022/02/18 11:06:17;;;;;;;11.07;6.20;;;6.30;99.90;;;;;;6111719;23;21014;-77
2022/02/18 11:08:49;;;;;;;9.37;5.80;;;6.30;99.90;;;;;;6101956;23;21058;-76
2022/02/18 11:11:19;;;;;;;9.60;5.80;;;6.30;99.90;;;;;;6103373;23;20446;-78
2022/02/18 11:13:48;;;;;;;13.63;6.13;;;6.30;99.90;;;;;;6101494;23;20459;-78
2022/02/18 11:16:18;;;;;;;12.73;6.80;;;6.20;99.90;;;;;;6075820;23;20428;-81
2022/02/18 11:18:47;;;;;;;12.10;6.37;;;6.20;99.90;;;;;;6101842;23;20528;-81
2022/02/18 11:21:21;;;;;;;9.47;5.83;;;6.20;99.90;;;;;;6101837;23;20522;-78
2022/02/18 11:23:49;;;;;;;11.33;6.10;;;6.20;99.90;;;;;;6077703;23;20486;-78
2022/02/18 11:26:21;;;;;;;12.50;6.20;;;6.20;99.90;;;;;;6101736;23;20505;-78
2022/02/18 11:28:50;;;;;;;13.20;6.27;;;6.30;99.90;;;;;;6111898;23;20441;-78
2022/02/18 11:31:21;;;;;;;11.40;7.20;;;6.20;99.90;;;;;;6099067;23;20769;-79
2022/02/18 11:34:24;;;;;;;16.70;7.10;;;6.20;99.90;;;;;;6101480;23;20521;-80
2022/02/18 11:37:35;;;;;;;11.93;7.27;;;6.20;99.90;;;;;;6067691;23;20433;-81
2022/02/18 11:40:26;;;;;;;12.00;6.80;;;6.20;99.90;;;;;;6099603;23;20446;-78
2022/02/18 11:43:10;;;;;;;13.80;7.20;;;6.20;99.90;;;;;;6100987;23;20414;-78
2022/02/18 11:45:53;;;;;;;14.57;7.03;;;6.20;99.90;;;;;;6103941;23;20490;-78
2022/02/18 11:48:38;;;;;;;14.90;8.93;;;6.20;99.90;;;;;;6102214;23;20422;-80
2022/02/18 11:51:11;;;;;;;13.37;8.20;;;6.10;99.90;;;;;;6078453;23;20457;-80
2022/02/18 11:53:43;;;;;;;12.40;7.63;;;6.10;99.90;;;;;;6077454;23;20443;-78
2022/02/18 11:56:14;;;;;;;13.73;7.70;;;6.10;99.90;;;;;;6103112;23;20560;-78
2022/02/18 11:58:51;;;;;;;16.30;8.97;;;6.00;99.90;;;;;;6101984;23;20450;-78
2022/02/18 12:01:19;;;;;;;11.43;7.43;;;6.10;99.90;;;;;;6103202;23;21043;-80
2022/02/18 12:04:15;;;;;;;11.83;7.83;;;6.00;99.90;;;;;;6100352;23;20448;-79
2022/02/18 12:06:43;;;;;;;13.33;8.07;;;6.10;99.90;;;;;;6075232;23;20443;-78
2022/02/18 12:09:13;;;;;;;13.43;7.27;;;6.10;99.90;;;;;;6098911;23;20449;-77
2022/02/18 12:11:43;;;;;;;14.70;8.13;;;6.10;99.90;;;;;;6100716;23;20442;-79
2022/02/18 12:14:13;;;;;;;10.80;7.47;;;6.10;99.90;;;;;;6104397;23;20475;-78
2022/02/18 12:16:42;;;;;;;15.07;8.30;;;6.10;99.90;;;;;;6114368;23;20426;-80
2022/02/18 12:19:13;;;;;;;11.80;7.57;;;6.10;99.90;;;;;;6102905;23;20418;-78
2022/02/18 12:22:02;;;;;;;8.70;6.30;;;6.20;99.90;;;;;;6102981;23;20512;-80
2022/02/18 12:24:47;;;;;;;10.03;6.30;;;6.20;99.90;;;;;;6102525;23;20439;-78
2022/02/18 12:27:32;;;;;;;7.27;6.07;;;6.20;99.90;;;;;;6105655;23;20640;-82
2022/02/18 12:30:36;;;;;;;8.47;5.00;;;6.30;99.90;;;;;;6104962;23;20453;-82
2022/02/18 12:33:04;;;;;;;6.30;4.53;;;6.30;99.90;;;;;;6105221;23;20419;-79
2022/02/18 12:35:34;;;;;;;8.33;4.30;;;6.30;99.90;;;;;;6107989;23;20442;-80
2022/02/18 12:38:05;;;;;;;7.67;4.00;;;6.40;99.90;;;;;;6107410;23;20415;-79
2022/02/18 12:40:36;;;;;;;5.90;3.53;;;6.50;99.90;;;;;;6116633;23;20434;-84
2022/02/18 12:43:11;;;;;;;5.13;3.80;;;6.50;99.90;;;;;;6106533;23;20422;-80
2022/02/18 12:45:44;;;;;;;7.20;3.90;;;6.50;99.90;;;;;;6106410;23;20853;-81
2022/02/18 12:48:13;;;;;;;6.33;3.83;;;6.60;99.90;;;;;;6106775;23;20430;-79
2022/02/18 12:50:43;;;;;;;7.47;4.60;;;6.60;99.90;;;;;;6113722;23;20431;-79
2022/02/18 12:53:12;;;;;;;6.80;4.13;;;6.60;99.90;;;;;;6114136;23;20485;-78
2022/02/18 12:55:40;;;;;;;7.63;4.13;;;6.60;99.90;;;;;;6117159;23;20832;-78
2022/02/18 12:58:13;;;;;;;7.33;4.37;;;6.60;99.90;;;;;;6107080;23;20815;-79
2022/02/18 13:00:43;;;;;;;8.43;3.90;;;6.60;99.90;;;;;;6102084;23;20439;-78
2022/02/18 13:03:12;;;;;;;7.10;4.43;;;6.70;99.90;;;;;;6078030;23;20506;-78
2022/02/18 13:05:41;;;;;;;5.67;4.07;;;6.70;99.90;;;;;;6102306;23;20441;-78
2022/02/18 13:08:21;;;;;;;5.00;4.43;;;6.80;99.90;;;;;;6104022;23;20454;-79